createdAt,value
2018-09-09T00:01:06.179Z,99860.67
2018-09-09T00:03:35.803Z,99859.83
2018-09-09T00:06:05.319Z,99867.98
2018-09-09T00:08:34.922Z,99866.80
2018-09-09T00:11:04.484Z,99869.69
2018-09-09T00:13:34.042Z,99866.59
2018-09-09T00:16:03.539Z,99868.61
2018-09-09T00:18:33.076Z,99868.17
2018-09-09T00:21:02.680Z,99868.68
2018-09-09T00:23:32.239Z,99869.69
2018-09-09T00:26:01.740Z,99864.16
2018-09-09T00:28:31.316Z,99867.44
2018-09-09T00:31:00.892Z,99868.81
2018-09-09T00:33:30.375Z,99870.23
2018-09-09T00:36:00.007Z,99865.28
2018-09-09T00:38:29.489Z,99874.00
2018-09-09T00:40:59.090Z,99870.30
2018-09-09T00:43:28.594Z,99876.39
2018-09-09T00:45:58.212Z,99870.93
2018-09-09T00:48:27.707Z,99875.67
2018-09-09T00:51:02.222Z,99869.22
2018-09-09T00:53:36.700Z,99878.70
2018-09-09T00:56:06.333Z,99872.92
2018-09-09T00:58:35.949Z,99866.89
2018-09-09T01:01:10.583Z,99863.25
2018-09-09T01:03:40.191Z,99866.83
2018-09-09T01:06:09.800Z,99863.32
2018-09-09T01:08:39.363Z,99856.29
2018-09-09T01:11:09.379Z,99857.23
2018-09-09T01:13:38.879Z,99861.13
2018-09-09T01:16:08.644Z,99860.05
2018-09-09T01:18:38.156Z,99857.59
2018-09-09T01:21:07.695Z,99858.53
2018-09-09T01:23:37.182Z,99860.98
2018-09-09T01:26:06.870Z,99861.66
2018-09-09T01:28:36.464Z,99862.80
2018-09-09T01:31:06.037Z,99863.84
2018-09-09T01:33:35.616Z,99856.30
2018-09-09T01:36:05.180Z,99863.97
2018-09-09T01:38:34.721Z,99863.84
2018-09-09T01:41:04.335Z,99869.42
2018-09-09T01:43:33.879Z,99872.70
2018-09-09T01:46:03.379Z,99873.63
2018-09-09T01:48:32.919Z,99873.78
2018-09-09T01:51:02.422Z,99874.36
2018-09-09T01:53:31.947Z,99868.27
2018-09-09T01:56:01.492Z,99866.38
2018-09-09T01:58:31.100Z,99869.47
2018-09-09T02:01:00.615Z,99876.09
2018-09-09T02:03:30.241Z,99874.20
2018-09-09T02:05:59.732Z,99873.61
2018-09-09T02:08:29.287Z,99875.08
2018-09-09T02:11:00.336Z,99877.27
2018-09-09T02:13:31.120Z,99877.30
2018-09-09T02:16:01.199Z,99875.61
2018-09-09T02:18:30.788Z,99872.65
2018-09-09T02:21:00.347Z,99880.11
2018-09-09T02:23:29.890Z,99878.83
2018-09-09T02:25:59.470Z,99888.78
2018-09-09T02:28:28.955Z,99886.59
2018-09-09T02:30:58.563Z,99886.23
2018-09-09T02:33:28.152Z,99888.44
2018-09-09T02:35:57.645Z,99885.74
2018-09-09T02:38:27.256Z,99882.20
2018-09-09T02:40:56.835Z,99886.61
2018-09-09T02:43:26.353Z,99888.34
2018-09-09T02:45:55.899Z,99885.19
2018-09-09T02:48:25.414Z,99883.85
2018-09-09T02:50:54.956Z,99889.32
2018-09-09T02:53:24.488Z,99891.23
2018-09-09T02:55:54.088Z,99889.91
2018-09-09T02:58:23.583Z,99896.81
2018-09-09T03:00:53.136Z,99894.32
2018-09-09T03:03:22.639Z,99893.19
2018-09-09T03:05:52.245Z,99897.95
2018-09-09T03:08:21.802Z,99890.83
2018-09-09T03:11:21.658Z,99888.75
2018-09-09T03:13:51.207Z,99890.19
2018-09-09T03:16:20.748Z,99897.38
2018-09-09T03:18:50.317Z,99892.10
2018-09-09T03:21:19.855Z,99900.59
2018-09-09T03:23:49.381Z,99892.78
2018-09-09T03:26:18.947Z,99895.19
2018-09-09T03:28:48.515Z,99894.23
2018-09-09T03:31:18.012Z,99891.24
2018-09-09T03:33:47.564Z,99894.75
2018-09-09T03:36:17.204Z,99897.86
2018-09-09T03:38:46.760Z,99900.78
2018-09-09T03:41:16.291Z,99893.39
2018-09-09T03:43:45.861Z,99896.08
2018-09-09T03:46:16.043Z,99901.08
2018-09-09T03:48:45.613Z,99901.94
2018-09-09T03:51:15.160Z,99908.09
2018-09-09T03:53:44.692Z,99909.69
2018-09-09T03:56:14.920Z,99904.42
2018-09-09T03:58:44.613Z,99912.85
2018-09-09T04:01:14.421Z,99915.42
2018-09-09T04:03:43.993Z,99916.47
2018-09-09T04:06:13.557Z,99921.98
2018-09-09T04:08:43.113Z,99911.18
2018-09-09T04:11:12.797Z,99920.21
2018-09-09T04:13:43.328Z,99922.10
2018-09-09T04:16:13.638Z,99925.72
2018-09-09T04:18:44.048Z,99915.19
2018-09-09T04:21:13.610Z,99922.25
2018-09-09T04:23:43.559Z,99921.73
2018-09-09T04:26:13.108Z,99922.41
2018-09-09T04:28:42.651Z,99928.05
2018-09-09T04:31:12.240Z,99918.33
2018-09-09T04:33:41.910Z,99923.55
2018-09-09T04:36:11.415Z,99921.13
2018-09-09T04:38:40.972Z,99930.02
2018-09-09T04:41:10.486Z,99926.58
2018-09-09T04:43:40.084Z,99929.03
2018-09-09T04:46:09.651Z,99930.59
2018-09-09T04:48:39.190Z,99926.36
2018-09-09T04:51:08.875Z,99926.66
2018-09-09T04:53:38.503Z,99925.29
2018-09-09T04:56:08.020Z,99928.36
2018-09-09T04:58:37.623Z,99929.75
2018-09-09T05:01:07.223Z,99932.03
2018-09-09T05:03:36.703Z,99937.05
2018-09-09T05:06:06.307Z,99928.34
2018-09-09T05:08:35.859Z,99936.35
2018-09-09T05:11:05.463Z,99947.69
2018-09-09T05:13:35.002Z,99941.75
2018-09-09T05:16:04.536Z,99934.03
2018-09-09T05:18:34.031Z,99937.67
2018-09-09T05:21:03.672Z,99839.82
2018-09-09T05:23:33.236Z,99926.11
2018-09-09T05:26:02.783Z,99935.52
2018-09-09T05:28:32.452Z,99939.09
2018-09-09T05:31:02.067Z,99940.30
2018-09-09T05:33:31.564Z,99943.20
2018-09-09T05:36:01.134Z,99934.02
2018-09-09T05:38:30.652Z,99939.11
2018-09-09T05:41:00.191Z,99942.05
2018-09-09T05:43:29.787Z,99941.83
2018-09-09T05:45:59.361Z,99941.61
2018-09-09T05:48:28.907Z,99944.73
2018-09-09T05:50:58.464Z,99946.36
2018-09-09T05:53:28.060Z,99955.02
2018-09-09T05:55:57.615Z,99946.43
2018-09-09T05:58:27.169Z,99955.81
2018-09-09T06:00:56.748Z,99962.32
2018-09-09T06:03:26.287Z,99956.25
2018-09-09T06:05:55.780Z,99956.13
2018-09-09T06:08:25.323Z,99951.54
2018-09-09T06:10:55.833Z,99963.22
2018-09-09T06:13:26.637Z,99963.26
2018-09-09T06:15:56.206Z,99947.12
2018-09-09T06:18:25.795Z,99957.97
2018-09-09T06:20:55.295Z,99958.14
2018-09-09T06:23:24.896Z,99951.82
2018-09-09T06:25:54.387Z,99951.81
2018-09-09T06:28:24.057Z,99961.11
2018-09-09T06:30:53.519Z,99962.36
2018-09-09T06:33:23.055Z,99965.91
2018-09-09T06:35:52.624Z,99967.42
2018-09-09T06:38:22.166Z,99972.12
2018-09-09T06:40:51.700Z,99968.20
2018-09-09T06:43:21.229Z,99968.20
2018-09-09T06:45:50.731Z,99977.67
2018-09-09T06:48:20.259Z,99969.38
2018-09-09T06:50:49.791Z,99973.75
2018-09-09T06:53:19.325Z,99983.57
2018-09-09T06:55:49.007Z,99986.23
2018-09-09T06:58:18.526Z,99985.17
2018-09-09T07:00:48.112Z,99989.64
2018-09-09T07:03:17.691Z,99979.55
2018-09-09T07:05:47.265Z,99978.52
2018-09-09T07:08:16.859Z,99980.20
2018-09-09T07:10:46.426Z,99971.55
2018-09-09T07:13:15.994Z,99976.56
2018-09-09T07:15:45.560Z,99974.53
2018-09-09T07:18:15.103Z,99981.77
2018-09-09T07:20:44.632Z,99982.48
2018-09-09T07:23:14.127Z,99981.23
2018-09-09T07:25:43.706Z,99979.98
2018-09-09T07:28:13.217Z,99982.59
2018-09-09T07:30:42.763Z,99981.40
2018-09-09T07:33:12.324Z,99981.06
2018-09-09T07:35:41.893Z,99977.61
2018-09-09T07:38:11.503Z,99984.23
2018-09-09T07:40:41.048Z,99979.17
2018-09-09T07:43:10.644Z,99977.86
2018-09-09T07:45:40.151Z,99976.16
2018-09-09T07:48:09.800Z,99968.34
2018-09-09T07:50:39.347Z,99981.35
2018-09-09T07:53:08.895Z,99963.02
2018-09-09T07:55:38.482Z,99967.20
2018-09-09T07:58:08.123Z,99962.89
2018-09-09T08:00:37.607Z,99960.86
2018-09-09T08:03:07.506Z,99971.66
2018-09-09T08:05:37.068Z,99965.83
2018-09-09T08:08:06.776Z,99957.48
2018-09-09T08:10:36.272Z,99964.01
2018-09-09T08:13:06.081Z,99953.66
2018-09-09T08:15:35.647Z,99951.83
2018-09-09T08:18:05.349Z,99962.86
2018-09-09T08:20:34.876Z,99954.41
2018-09-09T08:23:04.469Z,99963.56
2018-09-09T08:25:34.019Z,99948.63
2018-09-09T08:28:03.612Z,99955.49
2018-09-09T08:30:33.144Z,99960.02
2018-09-09T08:33:02.759Z,99958.71
2018-09-09T08:35:32.328Z,99952.66
2018-09-09T08:38:01.917Z,99958.37
2018-09-09T08:40:31.504Z,99954.91
2018-09-09T08:43:01.126Z,99961.14
2018-09-09T08:45:30.693Z,99956.39
2018-09-09T08:48:00.241Z,99956.23
2018-09-09T08:50:29.789Z,99959.75
2018-09-09T08:52:59.339Z,99963.93
2018-09-09T08:55:28.857Z,99953.91
2018-09-09T08:57:58.419Z,99954.34
2018-09-09T09:00:27.999Z,99945.80
2018-09-09T09:02:57.525Z,99944.75
2018-09-09T09:05:27.071Z,99945.61
2018-09-09T09:07:56.725Z,99924.66
2018-09-09T09:10:26.175Z,99935.62
2018-09-09T09:12:55.754Z,99927.18
2018-09-09T09:15:25.262Z,99927.80
2018-09-09T09:17:54.904Z,99918.16
2018-09-09T09:20:24.397Z,99907.77
2018-09-09T09:22:53.935Z,99903.34
2018-09-09T09:25:23.417Z,99899.61
2018-09-09T09:27:52.960Z,99900.09
2018-09-09T09:30:22.518Z,99901.55
2018-09-09T09:32:52.048Z,99895.19
2018-09-09T09:35:21.651Z,99891.38
2018-09-09T09:37:51.200Z,99888.89
2018-09-09T09:40:20.690Z,99878.86
2018-09-09T09:42:50.210Z,99874.80
2018-09-09T09:45:19.707Z,99871.37
2018-09-09T09:47:49.328Z,99878.36
2018-09-09T09:50:18.860Z,99867.89
2018-09-09T09:52:48.352Z,99870.69
2018-09-09T09:55:17.897Z,99876.48
2018-09-09T09:57:47.402Z,99871.28
2018-09-09T10:00:22.074Z,99868.48
2018-09-09T10:02:51.567Z,99862.43
2018-09-09T10:05:21.188Z,99865.08
2018-09-09T10:07:50.781Z,99860.08
2018-09-09T10:10:20.616Z,99866.73
2018-09-09T10:12:50.159Z,99867.92
2018-09-09T10:15:19.757Z,99868.81
2018-09-09T10:17:49.251Z,99859.19
2018-09-09T10:20:18.783Z,99856.90
2018-09-09T10:22:48.353Z,99860.14
2018-09-09T10:25:17.855Z,99852.64
2018-09-09T10:27:47.388Z,99854.72
2018-09-09T10:30:16.919Z,99853.39
2018-09-09T10:32:46.459Z,99851.86
2018-09-09T10:35:15.963Z,99843.23
2018-09-09T10:37:45.564Z,99847.93
2018-09-09T10:40:15.240Z,99849.31
2018-09-09T10:42:44.840Z,99854.47
2018-09-09T10:45:14.368Z,99848.30
2018-09-09T10:47:43.999Z,99851.48
2018-09-09T10:50:13.550Z,99845.26
2018-09-09T10:52:43.048Z,99847.30
2018-09-09T10:55:12.657Z,99840.00
2018-09-09T10:57:42.157Z,99838.08
2018-09-09T11:00:11.818Z,99834.60
2018-09-09T11:02:41.315Z,99831.16
2018-09-09T11:05:10.845Z,99830.00
2018-09-09T11:07:40.472Z,99824.11
2018-09-09T11:10:09.972Z,99828.81
2018-09-09T11:12:39.573Z,99822.48
2018-09-09T11:15:09.143Z,99825.72
2018-09-09T11:17:38.711Z,99821.08
2018-09-09T11:20:08.302Z,99822.56
2018-09-09T11:22:37.835Z,99821.75
2018-09-09T11:25:07.585Z,99816.02
2018-09-09T11:27:37.155Z,99804.20
2018-09-09T11:30:06.784Z,99803.98
2018-09-09T11:32:36.386Z,99797.55
2018-09-09T11:35:05.997Z,99801.25
2018-09-09T11:37:35.640Z,99793.95
2018-09-09T11:40:05.286Z,99806.19
2018-09-09T11:42:34.863Z,99797.44
2018-09-09T11:45:04.548Z,99792.58
2018-09-09T11:47:34.092Z,99795.16
2018-09-09T11:50:03.732Z,99788.45
2018-09-09T11:52:33.272Z,99788.31
2018-09-09T11:55:02.788Z,99771.94
2018-09-09T11:57:32.376Z,99777.42
2018-09-09T12:00:01.911Z,99776.23
2018-09-09T12:02:31.456Z,99776.41
2018-09-09T12:05:01.012Z,99771.47
2018-09-09T12:07:30.621Z,99773.91
2018-09-09T12:10:00.188Z,99765.64
2018-09-09T12:12:29.711Z,99765.59
2018-09-09T12:14:59.754Z,99760.14
2018-09-09T12:17:29.304Z,99762.13
2018-09-09T12:19:58.875Z,99760.81
2018-09-09T12:22:28.421Z,99756.16
2018-09-09T12:24:57.997Z,99745.22
2018-09-09T12:27:27.586Z,99764.78
2018-09-09T12:29:57.073Z,99755.49
2018-09-09T12:32:26.664Z,99754.61
2018-09-09T12:34:56.203Z,99754.69
2018-09-09T12:37:25.828Z,99746.83
2018-09-09T12:39:55.440Z,99743.95
2018-09-09T12:42:25.096Z,99742.71
2018-09-09T12:44:59.688Z,99743.44
2018-09-09T12:47:34.273Z,99738.00
2018-09-09T12:50:03.940Z,99737.67
2018-09-09T12:52:33.487Z,99726.33
2018-09-09T12:55:03.023Z,99742.03
2018-09-09T12:57:32.580Z,99747.57
2018-09-09T13:00:02.199Z,99741.67
2018-09-09T13:02:31.722Z,99735.28
2018-09-09T13:05:01.248Z,99740.59
2018-09-09T13:07:30.804Z,99733.60
2018-09-09T13:10:00.335Z,99726.89
2018-09-09T13:12:33.911Z,99736.28
2018-09-09T13:15:03.456Z,99720.16
2018-09-09T13:17:33.024Z,99721.13
2018-09-09T13:20:02.573Z,99714.13
2018-09-09T13:22:32.146Z,99729.20
2018-09-09T13:25:01.727Z,99721.65
2018-09-09T13:27:31.232Z,99719.41
2018-09-09T13:30:00.810Z,99721.08
2018-09-09T13:32:30.333Z,99718.01
2018-09-09T13:34:59.864Z,99726.22
2018-09-09T13:37:29.358Z,99714.36
2018-09-09T13:39:58.907Z,99724.41
2018-09-09T13:42:28.529Z,99720.63
2018-09-09T13:44:58.160Z,99715.72
2018-09-09T13:47:28.459Z,99714.77
2018-09-09T13:49:58.088Z,99717.92
2018-09-09T13:52:27.612Z,99728.13
2018-09-09T13:54:57.112Z,99718.11
2018-09-09T13:57:26.696Z,99716.61
2018-09-09T13:59:56.343Z,99714.18
2018-09-09T14:02:26.172Z,99715.01
2018-09-09T14:04:55.704Z,99704.19
2018-09-09T14:07:25.298Z,99707.91
2018-09-09T14:09:54.802Z,99711.55
2018-09-09T14:12:24.319Z,99707.35
2018-09-09T14:14:53.895Z,99723.27
2018-09-09T14:17:23.433Z,99709.78
2018-09-09T14:19:52.919Z,99710.48
2018-09-09T14:22:22.501Z,99712.58
2018-09-09T14:24:52.271Z,99721.24
2018-09-09T14:27:21.837Z,99722.58
2018-09-09T14:29:51.372Z,99711.21
2018-09-09T14:32:20.868Z,99704.18
2018-09-09T14:34:50.449Z,99708.91
2018-09-09T14:37:20.075Z,99711.47
2018-09-09T14:39:49.675Z,99711.11
2018-09-09T14:42:19.240Z,99702.11
2018-09-09T14:44:48.771Z,99722.11
2018-09-09T14:47:18.291Z,99724.27
2018-09-09T14:49:47.836Z,99733.94
2018-09-09T14:52:17.304Z,99754.78
2018-09-09T14:54:46.893Z,99747.27
2018-09-09T14:57:16.430Z,99748.82
2018-09-09T14:59:46.009Z,99751.30
2018-09-09T15:02:15.655Z,99746.89
2018-09-09T15:04:45.195Z,99758.44
2018-09-09T15:07:14.763Z,99755.34
2018-09-09T15:09:44.307Z,99756.16
2018-09-09T15:12:13.872Z,99764.17
2018-09-09T15:14:43.400Z,99735.59
2018-09-09T15:17:12.907Z,99755.22
2018-09-09T15:19:42.659Z,99765.25
2018-09-09T15:22:12.143Z,99776.45
2018-09-09T15:24:41.709Z,99768.16
2018-09-09T15:27:11.338Z,99794.95
2018-09-09T15:29:40.901Z,99785.78
2018-09-09T15:32:10.412Z,99770.75
2018-09-09T15:34:39.971Z,99792.39
2018-09-09T15:37:09.499Z,99777.17
2018-09-09T15:39:39.059Z,99769.42
2018-09-09T15:42:08.608Z,99771.77
2018-09-09T15:44:38.099Z,99774.52
2018-09-09T15:47:07.668Z,99772.18
2018-09-09T15:49:37.243Z,99779.30
2018-09-09T15:52:06.963Z,99769.42
2018-09-09T15:54:36.388Z,99776.92
2018-09-09T15:57:05.940Z,99784.11
2018-09-09T15:59:35.459Z,99771.14
2018-09-09T16:02:05.080Z,99768.80
2018-09-09T16:04:34.739Z,99778.48
2018-09-09T16:07:04.331Z,99774.09
2018-09-09T16:09:33.896Z,99776.91
2018-09-09T16:12:03.446Z,99778.03
2018-09-09T16:14:32.935Z,99782.98
2018-09-09T16:17:02.611Z,99794.42
2018-09-09T16:19:32.128Z,99792.27
2018-09-09T16:22:01.624Z,99799.97
2018-09-09T16:24:31.294Z,99795.55
2018-09-09T16:27:00.678Z,99794.27
2018-09-09T16:29:30.203Z,99797.86
2018-09-09T16:31:59.687Z,99800.55
2018-09-09T16:34:29.238Z,99806.23
2018-09-09T16:36:58.731Z,99807.62
2018-09-09T16:39:28.381Z,99808.67
2018-09-09T16:41:57.891Z,99813.22
2018-09-09T16:44:27.480Z,99809.16
2018-09-09T16:46:57.029Z,99818.91
2018-09-09T16:49:26.630Z,99813.86
2018-09-09T16:51:56.133Z,99819.07
2018-09-09T16:54:25.655Z,99822.87
2018-09-09T16:56:55.251Z,99821.23
2018-09-09T16:59:24.764Z,99821.89
2018-09-09T17:01:54.367Z,99820.50
2018-09-09T17:04:23.924Z,99826.05
2018-09-09T17:06:53.566Z,99822.39
2018-09-09T17:09:23.074Z,99828.59
2018-09-09T17:11:52.756Z,99845.45
2018-09-09T17:14:22.274Z,99842.28
2018-09-09T17:16:51.808Z,99848.50
2018-09-09T17:19:21.301Z,99853.35
2018-09-09T17:21:52.302Z,99856.64
2018-09-09T17:24:21.840Z,99855.09
2018-09-09T17:26:51.370Z,99859.16
2018-09-09T17:29:20.840Z,99868.11
2018-09-09T17:31:50.359Z,99869.73
2018-09-09T17:34:19.850Z,99871.70
2018-09-09T17:36:49.375Z,99875.28
2018-09-09T17:39:18.892Z,99876.14
2018-09-09T17:41:48.367Z,99882.90
2018-09-09T17:44:17.879Z,99882.41
2018-09-09T17:46:47.424Z,99881.47
2018-09-09T17:49:16.925Z,99890.70
2018-09-09T17:51:46.452Z,99887.89
2018-09-09T17:54:15.991Z,99891.86
2018-09-09T17:56:45.504Z,99894.57
2018-09-09T17:59:15.056Z,99896.16
2018-09-09T18:01:44.575Z,99900.93
2018-09-09T18:04:14.095Z,99904.61
2018-09-09T18:06:43.607Z,99903.89
2018-09-09T18:09:13.079Z,99908.19
2018-09-09T18:11:42.649Z,99900.55
2018-09-09T18:14:12.137Z,99904.38
2018-09-09T18:16:41.664Z,99909.77
2018-09-09T18:19:11.196Z,99903.89
2018-09-09T18:21:40.664Z,99916.93
2018-09-09T18:24:10.170Z,99914.98
2018-09-09T18:26:39.690Z,99911.80
2018-09-09T18:29:09.232Z,99921.44
2018-09-09T18:31:38.755Z,99921.86
2018-09-09T18:34:08.486Z,99924.31
2018-09-09T18:36:37.988Z,99916.41
2018-09-09T18:39:09.045Z,99922.11
2018-09-09T18:41:38.479Z,99919.17
2018-09-09T18:44:07.947Z,99924.00
2018-09-09T18:46:37.496Z,99924.00
2018-09-09T18:49:06.976Z,99926.11
2018-09-09T18:51:36.531Z,99923.10
2018-09-09T18:54:10.004Z,99924.83
2018-09-09T18:56:39.534Z,99926.22
2018-09-09T18:59:09.683Z,99922.47
2018-09-09T19:01:40.034Z,99930.86
2018-09-09T19:04:09.576Z,99931.34
2018-09-09T19:06:39.081Z,99931.05
2018-09-09T19:09:08.699Z,99930.78
2018-09-09T19:11:38.185Z,99937.81
2018-09-09T19:14:07.781Z,99936.98
2018-09-09T19:16:37.248Z,99935.05
2018-09-09T19:19:06.829Z,99947.66
2018-09-09T19:21:36.325Z,99940.57
2018-09-09T19:24:05.847Z,99938.87
2018-09-09T19:26:35.411Z,99941.38
2018-09-09T19:29:05.012Z,99931.25
2018-09-09T19:31:34.513Z,99937.36
2018-09-09T19:34:04.000Z,99939.99
2018-09-09T19:36:33.577Z,99939.99
2018-09-09T19:39:03.057Z,99942.99
2018-09-09T19:41:32.563Z,99943.22
2018-09-09T19:44:02.137Z,99937.36
2018-09-09T19:46:31.579Z,99939.99
2018-09-09T19:49:01.091Z,99945.05
2018-09-09T19:51:30.640Z,99938.34
2018-09-09T19:54:00.196Z,99937.28
2018-09-09T19:56:29.705Z,99942.42
2018-09-09T19:58:59.310Z,99937.94
2018-09-09T20:01:28.824Z,99934.91
2018-09-09T20:03:58.615Z,99943.53
2018-09-09T20:06:28.123Z,99942.09
2018-09-09T20:08:57.641Z,99951.83
2018-09-09T20:11:27.112Z,99946.78
2018-09-09T20:13:56.622Z,99949.33
2018-09-09T20:16:26.069Z,99950.03
2018-09-09T20:18:55.584Z,99952.30
2018-09-09T20:21:25.084Z,99951.49
2018-09-09T20:23:54.603Z,99948.05
2018-09-09T20:26:24.080Z,99953.75
2018-09-09T20:28:53.758Z,99951.12
2018-09-09T20:31:23.295Z,99952.27
2018-09-09T20:33:52.812Z,99950.38
2018-09-09T20:36:22.375Z,99953.95
2018-09-09T20:38:51.930Z,99949.67
2018-09-09T20:41:21.912Z,99947.66
2018-09-09T20:43:51.484Z,99949.25
2018-09-09T20:46:21.028Z,99955.67
2018-09-09T20:48:50.495Z,99946.80
2018-09-09T20:51:20.007Z,99952.33
2018-09-09T20:53:49.485Z,99952.22
2018-09-09T20:56:19.314Z,99947.08
2018-09-09T20:58:48.840Z,99949.58
2018-09-09T21:01:18.356Z,99955.50
2018-09-09T21:03:47.808Z,99954.66
2018-09-09T21:06:17.283Z,99960.69
2018-09-09T21:08:46.777Z,99961.84
2018-09-09T21:11:16.263Z,99962.19
2018-09-09T21:13:45.780Z,99966.95
2018-09-09T21:16:15.355Z,99859.99
2018-09-09T21:18:44.831Z,99959.76
2018-09-09T21:21:14.367Z,99970.82
2018-09-09T21:23:43.854Z,99966.60
2018-09-09T21:26:13.455Z,99967.22
2018-09-09T21:28:42.882Z,99974.01
2018-09-09T21:31:12.407Z,99970.13
2018-09-09T21:33:41.942Z,99969.43
2018-09-09T21:36:11.435Z,99971.51
2018-09-09T21:38:40.951Z,99972.53
2018-09-09T21:41:10.437Z,99968.81
2018-09-09T21:43:39.942Z,99969.50
2018-09-09T21:46:09.451Z,99971.00
2018-09-09T21:48:39.001Z,99964.96
2018-09-09T21:51:08.495Z,99968.84
2018-09-09T21:53:38.135Z,99962.73
2018-09-09T21:56:07.876Z,99959.92
2018-09-09T21:58:37.416Z,99964.13
2018-09-09T22:01:12.127Z,99960.94
2018-09-09T22:03:41.635Z,99957.67
2018-09-09T22:06:11.123Z,99966.47
2018-09-09T22:08:40.645Z,99964.64
2018-09-09T22:11:10.388Z,99965.21
2018-09-09T22:13:39.976Z,99968.35
2018-09-09T22:16:09.447Z,99965.02
2018-09-09T22:18:39.038Z,99963.70
2018-09-09T22:21:08.495Z,99972.73
2018-09-09T22:23:38.058Z,99967.84
2018-09-09T22:26:07.555Z,99971.48
2018-09-09T22:28:37.037Z,99978.09
2018-09-09T22:31:06.563Z,99976.89
2018-09-09T22:33:36.035Z,99968.80
2018-09-09T22:36:05.531Z,99969.41
2018-09-09T22:38:35.087Z,99964.75
2018-09-09T22:41:04.599Z,99975.50
2018-09-09T22:43:34.139Z,99969.61
2018-09-09T22:46:03.681Z,99970.58
2018-09-09T22:48:33.140Z,99977.05
2018-09-09T22:51:02.655Z,99971.16
2018-09-09T22:53:32.159Z,99972.61
2018-09-09T22:56:01.673Z,99980.39
2018-09-09T22:58:31.223Z,99978.37
2018-09-09T23:01:00.758Z,99977.89
2018-09-09T23:03:30.269Z,99976.38
2018-09-09T23:05:59.779Z,99984.73
2018-09-09T23:08:29.268Z,99983.89
2018-09-09T23:10:58.795Z,99979.75
2018-09-09T23:13:28.304Z,99981.64
2018-09-09T23:15:57.775Z,99975.23
2018-09-09T23:18:27.315Z,99975.00
2018-09-09T23:20:56.794Z,99971.83
2018-09-09T23:23:26.331Z,99982.58
2018-09-09T23:25:55.830Z,99973.11
2018-09-09T23:28:25.367Z,99970.45
2018-09-09T23:30:54.929Z,99977.22
2018-09-09T23:33:24.391Z,99977.16
2018-09-09T23:35:53.968Z,99973.58
2018-09-09T23:38:23.436Z,99980.48
2018-09-09T23:40:52.948Z,99976.34
2018-09-09T23:43:22.505Z,99977.72
2018-09-09T23:45:52.027Z,99971.69
2018-09-09T23:48:21.516Z,99972.83
2018-09-09T23:50:51.069Z,99972.20
2018-09-09T23:53:20.531Z,99979.59
2018-09-09T23:55:50.047Z,99977.34
2018-09-09T23:58:19.506Z,99972.05
